Sunnyside, Canada
Current Conditions -  °F | °C
As of 12:00 AM on Tuesday 21 Oct 2014 (Local Time) from CYYT Reporting Station
Broken Clouds Broken Clouds  
Wind Chill: 36°   Ceiling: 3000
Heat Index: 46°   Visibility: 15mi
Dew Point: 41°   Wind: 36mph
Humidity: 81%   Direction: 250°WSW
Pressure: 29.72"   Gusts: 46mph
Location:  47.87°N, 53.93°W
Report Text: CYYT 210200Z 25031G40KT 15SM BKN030 08/05 A2972 RMK SC5 SLP066
Loading
Personal Weather Stations






























Interactive Weather Map
Tropical Storm Tracking
New forecast layout! Learn more

10-Day Weather Forecast

Advertisements
Track Severe Weather on mobile